KCFV - Coffeyville, Kansas, USA
Distance from station: ENE 93mi, 150km
Updated: Thu, 23-Jan-2020 5:52pm PST
Overcast
Overcast
 Wind from NW
Wind: NW 10 mph , 17 km/h
Temperature: 39°F , 4°C
Wind Chill: 32°F , 0°C
Dew Point: 36°F , 2°C
Humidity: 87%
Barometer: 29.89 inHg , 1012.2 hPa
Clouds: Overcast
Visibility: 10 miles , 16 km
Cloud details: Mostly Cloudy 1500 ft
Overcast 2100 ft
2020/01/24 01:52 KCFV 240152Z AUTO 32009KT 10SM BKN015 OVC021 04/02 A2989 RMK AO2 SLP127 T00390017
KIDP - Independence, Kansas, USA
Distance from station: NE 86mi, 138km
Updated: Thu, 23-Jan-2020 5:50pm PST
Overcast
Overcast
 Wind from NW
Wind: NW 13 mph , 20 km/h
Temperature: 37°F , 3°C
Wind Chill: 29°F , -2°C
Dew Point: 36°F , 2°C
Humidity: 93%
Barometer: 29.91 inHg , 1012.9 hPa
Clouds: Overcast
Visibility: 10 miles , 16 km
Cloud details: Mostly Cloudy 1300 ft
Overcast 1800 ft
2020/01/24 01:50 KIDP 240150Z AUTO 32011KT 10SM BKN013 OVC018 03/02 A2991 RMK AO2 T00300015
 
KIAB - Mcconnell Afb, Kansas, USA
Distance from station: N 84mi, 135km
Updated: Thu, 23-Jan-2020 5:56pm PST
Light snow, Mist, Overcast
Light snow, Mist, Overcast
 Wind from NNW
Wind: NNW 14 mph , 22 km/h
Temperature: 34°F , 1°C
Wind Chill: 25°F , -4°C
Dew Point: 32°F , 0°C
Humidity: 93%
Barometer: 29.95 inHg , 1014.2 hPa
Summary: Light snow, Mist
Clouds: Overcast
Visibility: 2 3/4 miles , 4.4 km
Cloud details: Overcast 400 ft
2020/01/24 01:56 KIAB 240156Z AUTO 33012KT 2 3/4SM -SN BR OVC004 01/00 A2995 RMK AO2 SLPNO P0001 T00050004
KICT - Wichita, Kansas, USA
Distance from station: NNW 88mi, 142km
Updated: Thu, 23-Jan-2020 5:53pm PST
Light snow, Overcast
Light snow, Overcast
 Wind from NNW
Wind: NNW 17 mph , 28 km/h, Gust: 26 mph , 43 km/h
Temperature: 36°F , 2°C
Wind Chill: 26°F , -3°C
Dew Point: 30°F , -1°C
Humidity: 81%
Barometer: 29.96 inHg , 1014.6 hPa
Summary: Light Snow
Clouds: Overcast
Visibility: 3 miles , 5 km
Cloud details: Mostly Cloudy 1100 ft
Overcast 1700 ft
2020/01/24 01:53 KICT 240153Z 34015G23KT 3SM -SN BKN011 OVC017 02/M01 A2996 RMK AO2 PK WND 33026/0141 SFC VIS 10 SLP153 P0003 T00171006
 
KAAO - Wichita/Jabara, Kansas, USA
Distance from station: N 93mi, 149km
Updated: Thu, 23-Jan-2020 5:54pm PST
Light snow, Mist, Overcast
Light snow, Mist, Overcast
 Wind from NNW
Wind: NNW 16 mph , 26 km/h, Gust: 22 mph , 35 km/h
Temperature: 34°F , 1°C
Wind Chill: 24°F , -4°C
Dew Point: 32°F , 0°C
Humidity: 93%
Barometer: 29.95 inHg , 1014.2 hPa
Summary: Light snow, Mist
Clouds: Overcast
Visibility: 2 1/2 miles , 4 km
Cloud details: Mostly Cloudy 800 ft
Mostly Cloudy 1500 ft
Overcast 2600 ft
2020/01/24 01:54 KAAO 240154Z AUTO 33014G19KT 2 1/2SM -SN BR BKN008 BKN015 OVC026 01/00 A2995 RMK AO2 SLP153 P0001 T00060000
KWLD - Winfield/Arkansa, Kansas, USA
Distance from station: N 52mi, 84km
Updated: Thu, 23-Jan-2020 5:54pm PST
Overcast
Overcast
 Wind from NW
Wind: NW 14 mph , 22 km/h
Temperature: 36°F , 2°C
Wind Chill: 27°F , -3°C
Dew Point: 30°F , -1°C
Humidity: 81%
Barometer: 29.96 inHg , 1014.6 hPa
Clouds: Overcast
Visibility: 9 miles , 14 km
Cloud details: Mostly Cloudy 800 ft
Mostly Cloudy 1500 ft
Overcast 3700 ft
2020/01/24 01:54 KWLD 240154Z AUTO 31012KT 9SM UP BKN008 BKN015 OVC037 02/M01 A2996 RMK AO2 UPB15E29B50SNB29E50 SLP154 P0001 T00221006
 
KAVK - Alva, Oklahoma, USA
Distance from station: WNW 94mi, 152km
Updated: Thu, 23-Jan-2020 5:55pm PST
Partly Cloudy
Partly Cloudy
 Wind from NNW
Wind: NNW 8 mph , 13 km/h
Temperature: 39°F , 4°C
Wind Chill: 33°F , 1°C
Dew Point: 34°F , 1°C
Humidity: 81%
Barometer: 30.03 inHg , 1016.9 hPa
Clouds: Partly Cloudy
Visibility: 10 miles , 16 km
Cloud details: Few Clouds 3900 ft
Partly Cloudy 4900 ft
Partly Cloudy 5500 ft
2020/01/24 01:55 KAVK 240155Z AUTO 33007KT 10SM FEW039 SCT049 SCT055 04/01 A3003 RMK AO2 PWINO TSNO
KBVO - Bartlesville, Oklahoma, USA
Distance from station: ENE 61mi, 98km
Updated: Thu, 23-Jan-2020 5:53pm PST
Overcast
Overcast
 Wind from varies
Wind: varies 5 mph , 7 km/h
Temperature: 39°F , 4°C
Wind Chill: 35°F , 2°C
Dew Point: 34°F , 1°C
Humidity: 81%
Barometer: 29.94 inHg , 1013.9 hPa
Clouds: Overcast
Visibility: 10 miles , 16 km
Cloud details: Mostly Cloudy 2000 ft
Overcast 6000 ft
2020/01/24 01:53 KBVO 240153Z AUTO VRB04KT 10SM BKN020 OVC060 04/01 A2994 RMK AO2 SLP138 T00390011
 
KBKN - Blackwell, Oklahoma, USA
Distance from station: NW 29mi, 47km
Updated: Thu, 23-Jan-2020 5:55pm PST
Light rain, Mostly cloudy
Light rain, Mostly cloudy
 Wind from NW
Wind: NW 20 mph , 31 km/h
Temperature: 36°F , 2°C
Wind Chill: 25°F , -4°C
Dew Point: 36°F , 2°C
Humidity: 100%
Barometer: 30.01 inHg , 1016.3 hPa
Summary: Light Rain
Clouds: Mostly Cloudy
Visibility: 8 miles , 13 km
Cloud details: Few Clouds 900 ft
Partly Cloudy 1300 ft
Mostly Cloudy 2300 ft
2020/01/24 01:55 KBKN 240155Z AUTO 32017KT 8SM -RA FEW009 SCT013 BKN023 02/02 A3001 RMK AO2 P0002
KGCM - Claremore, Oklahoma, USA
Distance from station: E 86mi, 138km
Updated: Thu, 23-Jan-2020 5:55pm PST
Partly Cloudy
Partly Cloudy
 Wind from WNW
Wind: WNW 10 mph , 17 km/h
Temperature: 37°F , 3°C
Wind Chill: 30°F , -1°C
Dew Point: 32°F , 0°C
Humidity: 81%
Barometer: 29.93 inHg , 1013.5 hPa
Clouds: Partly Cloudy
Visibility: 10 miles , 16 km
Cloud details: Partly Cloudy 1900 ft
2020/01/24 01:55 KGCM 240155Z AUTO 30009KT 10SM SCT019 03/00 A2993 RMK AO2
 
KCQB - Chandler, Oklahoma, USA
Distance from station: SSE 50mi, 80km
Updated: Thu, 23-Jan-2020 5:55pm PST
Overcast
Overcast
 Wind from NW
Wind: NW 10 mph , 17 km/h, Gust: 18 mph , 30 km/h
Temperature: 41°F , 5°C
Wind Chill: 35°F , 2°C
Dew Point: 36°F , 2°C
Humidity: 81%
Barometer: 29.98 inHg , 1015.2 hPa
Clouds: Overcast
Visibility: 10 miles , 16 km
Cloud details: Partly Cloudy 7500 ft
Overcast 8500 ft
2020/01/24 01:55 KCQB 240155Z AUTO 31009G16KT 10SM SCT075 OVC085 05/02 A2998 RMK AO2 T00550017
KCUH - Cushing, Oklahoma, USA
Distance from station: SSE 35mi, 57km
Updated: Thu, 23-Jan-2020 5:55pm PST
Light drizzle, Overcast
Light drizzle, Overcast
 Wind from NNW
Wind: NNW 17 mph , 28 km/h, Gust: 25 mph , 41 km/h
Temperature: 41°F , 5°C
Wind Chill: 33°F , 1°C
Dew Point: 36°F , 2°C
Humidity: 81%
Barometer: 29.96 inHg , 1014.6 hPa
Summary: Light Drizzle
Clouds: Overcast
Visibility: 10 miles , 16 km
Cloud details: Partly Cloudy 8000 ft
Overcast 9000 ft
2020/01/24 01:55 KCUH 240155Z AUTO 33015G22KT 10SM -DZ SCT080 OVC090 05/02 A2996 RMK AO2 T00450020
 
KRQO - El Reno Muni, Oklahoma, USA
Distance from station: SW 85mi, 137km
Updated: Thu, 23-Jan-2020 5:50pm PST
Clear
Clear
 Wind from NNE
Wind: NNE 17 mph , 28 km/h, Gust: 24 mph , 39 km/h
Temperature: 39°F , 4°C
Wind Chill: 30°F , -1°C
Dew Point: 32°F , 0°C
Humidity: 75%
Barometer: 30.02 inHg , 1016.6 hPa
Clouds: Clear
Visibility: 10 miles , 16 km
2020/01/24 01:50 KRQO 240150Z AUTO 02015G21KT 10SM CLR 04/00 A3002 RMK AO2 TSNO T00450000
KEND - Enid/Vance Afb, Oklahoma, USA
Distance from station: W 50mi, 81km
Updated: Thu, 23-Jan-2020 5:56pm PST
Clear
Clear
 Wind from NNW
Wind: NNW 16 mph , 26 km/h
Temperature: 41°F , 5°C
Wind Chill: 33°F , 1°C
Dew Point: 37°F , 3°C
Humidity: 87%
Barometer: 29.99 inHg , 1015.6 hPa
Clouds: Clear
Visibility: 10 miles , 16 km
2020/01/24 01:56 KEND 240156Z AUTO 34014KT 10SM R35C/4500FT CLR 05/03 A2999 RMK AO2 SLPNO T00500033 $
 
KWDG - Enid/Woodring, Oklahoma, USA
Distance from station: W 42mi, 67km
Updated: Thu, 23-Jan-2020 5:45pm PST
Mostly Cloudy
Mostly Cloudy
 Wind from NW
Wind: NW 14 mph , 22 km/h
Temperature: 41°F , 5°C
Wind Chill: 33°F , 1°C
Dew Point: 34°F , 1°C
Humidity: 76%
Barometer: 29.99 inHg , 1015.6 hPa
Clouds: Mostly Cloudy
Visibility: 10 miles , 16 km
Cloud details: Partly Cloudy 7000 ft
Mostly Cloudy 8500 ft
Mostly Cloudy 9500 ft
2020/01/24 01:45 KWDG 240145Z 32012KT 10SM SCT070 BKN085 BKN095 05/01 A2999
KGOK - Guthrie, Oklahoma, USA
Distance from station: SSW 44mi, 71km
Updated: Thu, 23-Jan-2020 5:53pm PST
Overcast
Overcast
 Wind from NNW
Wind: NNW 9 mph , 15 km/h
Temperature: 43°F , 6°C
Wind Chill: 38°F , 3°C
Dew Point: 34°F , 1°C
Humidity: 71%
Barometer: 29.99 inHg , 1015.6 hPa
Clouds: Overcast
Visibility: 10 miles , 16 km
Cloud details: Overcast 9000 ft
2020/01/24 01:53 KGOK 240153Z AUTO 33008KT 10SM OVC090 06/01 A2999 RMK AO2 SLP164 T00560011 $
 
KOUN - Norman/Westheime, Oklahoma, USA
Distance from station: SSW 84mi, 136km
Updated: Thu, 23-Jan-2020 5:45pm PST
Clear
Clear
 Wind from W
Wind: W 9 mph , 15 km/h
Temperature: 46°F , 8°C
Wind Chill: 41°F , 5°C
Dew Point: 28°F , -2°C
Humidity: 50%
Barometer: 29.95 inHg , 1014.2 hPa
Clouds: Clear
Visibility: 10 miles , 16 km
2020/01/24 01:45 KOUN 240145Z 28008KT 10SM CLR 08/M02 A2995
KOKC - Oklahoma City, Oklahoma, USA
Distance from station: SSW 78mi, 126km
Updated: Thu, 23-Jan-2020 5:52pm PST
Partly Cloudy
Partly Cloudy
 Wind from N
Wind: N 15 mph , 24 km/h
Temperature: 41°F , 5°C
Wind Chill: 33°F , 1°C
Dew Point: 34°F , 1°C
Humidity: 76%
Barometer: 29.99 inHg , 1015.6 hPa
Clouds: Partly Cloudy
Visibility: 10 miles , 16 km
Cloud details: Few Clouds 6000 ft
Few Clouds 9000 ft
Partly Cloudy 25000 ft
2020/01/24 01:52 KOKC 240152Z 01013KT 10SM FEW060 FEW090 SCT250 05/01 A2999 RMK AO2 WSHFT 0123 SLP161 T00500011 $
 
KPWA - Okla City/Wiley, Oklahoma, USA
Distance from station: SSW 70mi, 113km
Updated: Thu, 23-Jan-2020 5:53pm PST
Clear
Clear
 Wind from N
Wind: N 13 mph , 20 km/h
Temperature: 41°F , 5°C
Wind Chill: 34°F , 1°C
Dew Point: 34°F , 1°C
Humidity: 76%
Barometer: 30.00 inHg , 1015.9 hPa
Clouds: Clear
Visibility: 10 miles , 16 km
2020/01/24 01:53 KPWA 240153Z 36011KT 10SM CLR 05/01 A3000 RMK AO2 WSHFT 0106 SLP163 T00500011 $
KRCE - Okla City/Page, Oklahoma, USA
Distance from station: SW 78mi, 126km
Updated: Thu, 23-Jan-2020 5:55pm PST

 Wind from N
Wind: N 8 mph , 13 km/h
Temperature: 39°F , 4°C
Wind Chill: 33°F , 1°C
Dew Point: 34°F , 1°C
Humidity: 81%
Barometer: 30.01 inHg , 1016.3 hPa
Visibility: 10 miles , 16 km
2020/01/24 01:55 KRCE 240155Z AUTO 01007KT 10SM 04/01 A3001 RMK AO2
 
KOKM - Okmulgee, Oklahoma, USA
Distance from station: SE 79mi, 127km
Updated: Thu, 23-Jan-2020 5:55pm PST
Drizzle, Overcast
Drizzle, Overcast
 Wind from NW
Wind: NW 13 mph , 20 km/h, Gust: 24 mph , 39 km/h
Temperature: 45°F , 7°C
Wind Chill: 39°F , 4°C
Dew Point: 36°F , 2°C
Humidity: 71%
Barometer: 29.96 inHg , 1014.6 hPa
Summary: Drizzle
Clouds: Overcast
Visibility: 10 miles , 16 km
Cloud details: Partly Cloudy 4100 ft
Mostly Cloudy 5500 ft
Overcast 8000 ft
2020/01/24 01:55 KOKM 240155Z AUTO 31011G21KT 10SM DZ SCT041 BKN055 OVC080 07/02 A2996 RMK AO2 T00660022
KPNC - Ponca City, Oklahoma, USA
Distance from station: N 22mi, 36km
Updated: Thu, 23-Jan-2020 5:53pm PST
Light rain, Overcast
Light rain, Overcast
 Wind from NW
Wind: NW 14 mph , 22 km/h, Gust: 22 mph , 35 km/h
Temperature: 45°F , 7°C
Wind Chill: 39°F , 4°C
Dew Point: 34°F , 1°C
Humidity: 66%
Barometer: 29.97 inHg , 1014.9 hPa
Summary: Light Rain
Clouds: Overcast
Visibility: 10 miles , 16 km
Cloud details: Overcast 1400 ft
2020/01/24 01:53 KPNC 240153Z AUTO 32012G19KT 10SM -RA OVC014 07/01 A2997 RMK AO2 RAE20B48 SLP147 P0000 T00720006
 
KSNL - Shawnee, Oklahoma, USA
Distance from station: S 74mi, 119km
Updated: Thu, 23-Jan-2020 5:55pm PST
Mostly Cloudy
Mostly Cloudy
 Wind from N
Wind: N 12 mph , 19 km/h
Temperature: 41°F , 5°C
Wind Chill: 34°F , 1°C
Dew Point: 34°F , 1°C
Humidity: 76%
Barometer: 29.99 inHg , 1015.6 hPa
Clouds: Mostly Cloudy
Visibility: 10 miles , 16 km
Cloud details: Mostly Cloudy 9000 ft
2020/01/24 01:55 KSNL 240155Z AUTO 35010KT 10SM BKN090 05/01 A2999 RMK AO2 T00540011
KSWO - Stillwater, Oklahoma, USA
Distance from station: S 17mi, 28km
Updated: Thu, 23-Jan-2020 5:53pm PST
Light rain, Overcast
Light rain, Overcast
 Wind from NNW
Wind: NNW 17 mph , 28 km/h, Gust: 23 mph , 37 km/h
Temperature: 41°F , 5°C
Wind Chill: 33°F , 1°C
Dew Point: 36°F , 2°C
Humidity: 81%
Barometer: 29.98 inHg , 1015.2 hPa
Summary: Light Rain
Clouds: Overcast
Visibility: 10 miles , 16 km
Cloud details: Partly Cloudy 1700 ft
Overcast 4600 ft
2020/01/24 01:53 KSWO 240153Z AUTO 33015G20KT 10SM -RA SCT017 OVC046 05/02 A2998 RMK AO2 SLP153 P0001 T00500017 $
 
KTIK - Tinker Afb, Oklahoma, USA
Distance from station: SSW 72mi, 115km
Updated: Thu, 23-Jan-2020 5:56pm PST
Clear
Clear
 Wind from N
Wind: N 14 mph , 22 km/h
Temperature: 41°F , 5°C
Wind Chill: 33°F , 1°C
Dew Point: 34°F , 1°C
Humidity: 76%
Barometer: 29.99 inHg , 1015.6 hPa
Clouds: Clear
Visibility: 10 miles , 16 km
2020/01/24 01:56 KTIK 240156Z AUTO 36012KT 10SM CLR 05/01 A2999 RMK AO2 SLPNO T00510008
KTUL - Tulsa, Oklahoma, USA
Distance from station: ESE 65mi, 105km
Updated: Thu, 23-Jan-2020 5:53pm PST
Mostly Cloudy
Mostly Cloudy
 Wind from W
Wind: W 14 mph , 22 km/h
Temperature: 41°F , 5°C
Wind Chill: 33°F , 1°C
Dew Point: 36°F , 2°C
Humidity: 81%
Barometer: 29.93 inHg , 1013.5 hPa
Clouds: Mostly Cloudy
Visibility: 10 miles , 16 km
Cloud details: Mostly Cloudy 2300 ft
Mostly Cloudy 7500 ft
Mostly Cloudy 8500 ft
2020/01/24 01:53 KTUL 240153Z 28012KT 10SM BKN023 BKN075 BKN085 05/02 A2993 RMK AO2 RAE13 SLP135 P0000 T00500022

Metar display script from Saratoga-Weather.org